Archerfield, Queensland

10:36 PM AEST on August 24, 2016 (GMT +1000)
Nixy's Darra Weather | | Change Station

Elev 82 ft 27.56 °S, 152.96 °E | Updated 8 seconds ago

Mostly Cloudy
Mostly Cloudy
61.7 °F
Feels Like 61.7 °F
N
0.0
Wind Variable Wind from NNW
Gusts 0.0 mph

Today
High -- | Low -- °F
--% Chance of Precip.
Yesterday
High -- | Low -- °F
Precip. -- in
Pressure 29.74 in
Visibility 6.2 miles
Clouds Few 1200 ft
Scattered Clouds 19000 ft
Mostly Cloudy 24000 ft
Dew Point 61 °F
Humidity 98%
Rainfall 0.48 in
Snow Depth Not available.
6:10 AM 5:31 PM
Waning Gibbous, 57% visible
METAR YBBN 241200Z 33009KT 9999 FEW012 SCT190 BKN240 17/16 Q1007 FM1400 27015G25KT 9999 SCT025
Pressure 29.74 in
Visibility 6.2 miles
Clouds Few 1200 ft
Scattered Clouds 19000 ft
Mostly Cloudy 24000 ft
Dew Point 61 °F
Humidity 98%
Rainfall 0.48 in
Snow Depth Not available.
6:10 AM 5:31 PM
Waning Gibbous, 57% visible
METAR YBBN 241200Z 33009KT 9999 FEW012 SCT190 BKN240 17/16 Q1007 FM1400 27015G25KT 9999 SCT025

10-Day Weather Forecast

Almanac

Astronomy

Aug. 24, 2016 Rise Set
Actual Time
Civil Twilight
Nautical Twilight
Astronomical Twilight
Moon
Length of Visible Light
Length of Day
Tomorrow will be .
, % of the Moon is Illuminated

Today's Extremes

Country Highs Country Lows

Community

WunderPhotos

Upload Photos

1,934,583 photos uploaded!

WunderBlog® & News

Nearby

Air Quality

  Air Quality AQ Index Pollutant
Not available.

Snow Depth

Station Depth Elevation

Earthquake Activity

City Distance Mag. Time & Date
Minimum magnitude displayed is 2.5.

Coastal Water Temperatures

Place Temperature

Stations

Nearby Weather Stations

Station Location Temp. Windchill Dew Point Humidity Wind Precip. Elev Updated Type